createdAt,value
2022-08-26T00:00:56.743Z,23.75
2022-08-26T00:03:31.783Z,25.33
2022-08-26T00:06:04.072Z,27.58
2022-08-26T00:08:37.248Z,26.73
2022-08-26T00:11:10.852Z,22.95
2022-08-26T00:13:47.844Z,26.52
2022-08-26T00:16:21.951Z,26.50
2022-08-26T00:18:56.669Z,23.80
2022-08-26T00:21:28.495Z,26.27
2022-08-26T00:24:00.785Z,23.23
2022-08-26T00:26:34.429Z,25.67
2022-08-26T00:29:06.949Z,24.25
2022-08-26T00:31:41.599Z,23.55
2022-08-26T00:34:19.426Z,26.83
2022-08-26T00:36:52.494Z,29.10
2022-08-26T00:39:26.309Z,27.73
2022-08-26T00:41:57.955Z,27.42
2022-08-26T00:44:32.352Z,28.50
2022-08-26T00:47:08.850Z,29.50
2022-08-26T00:49:48.562Z,27.15
2022-08-26T00:52:25.055Z,32.33
2022-08-26T00:55:05.875Z,29.83
2022-08-26T00:57:41.953Z,26.55
2022-08-26T01:00:19.754Z,29.52
2022-08-26T01:02:52.852Z,28.63
2022-08-26T01:05:29.422Z,30.65
2022-08-26T01:11:16.870Z,30.23
2022-08-26T01:13:50.606Z,31.30
2022-08-26T01:16:22.807Z,34.80
2022-08-26T01:18:58.722Z,27.02
2022-08-26T01:21:41.239Z,23.38
2022-08-26T01:24:15.727Z,22.63
2022-08-26T01:26:48.508Z,32.42
2022-08-26T01:29:23.134Z,35.72
2022-08-26T01:31:59.243Z,28.13
2022-08-26T01:34:36.330Z,26.13
2022-08-26T01:37:15.501Z,27.75
2022-08-26T01:39:54.382Z,32.15
2022-08-26T01:42:31.561Z,29.20
2022-08-26T01:45:09.246Z,26.80
2022-08-26T01:47:42.304Z,32.45
2022-08-26T01:50:27.669Z,32.83
2022-08-26T01:53:03.780Z,27.20
2022-08-26T01:55:40.882Z,24.70
2022-08-26T01:58:26.232Z,31.27
2022-08-26T02:01:00.666Z,25.42
2022-08-26T02:03:35.298Z,30.02
2022-08-26T02:06:12.573Z,38.13
2022-08-26T02:08:48.018Z,31.60
2022-08-26T02:11:25.066Z,36.40
2022-08-26T02:14:03.927Z,28.27
2022-08-26T02:16:39.905Z,32.65
2022-08-26T02:19:20.954Z,33.20
2022-08-26T02:21:57.129Z,31.67
2022-08-26T02:24:33.184Z,31.45
2022-08-26T02:27:08.306Z,32.05
2022-08-26T02:29:46.833Z,27.73
2022-08-26T02:32:22.147Z,33.33
2022-08-26T02:34:55.888Z,29.55
2022-08-26T02:37:32.753Z,33.38
2022-08-26T02:40:08.316Z,34.05
2022-08-26T02:42:43.133Z,27.80
2022-08-26T02:45:23.159Z,30.95
2022-08-26T02:47:56.855Z,32.60
2022-08-26T02:50:30.045Z,34.33
2022-08-26T02:53:02.094Z,30.90
2022-08-26T02:55:35.401Z,33.08
2022-08-26T02:58:10.077Z,33.15
2022-08-26T03:00:52.907Z,34.15
2022-08-26T03:03:26.685Z,34.28
2022-08-26T03:06:00.790Z,29.40
2022-08-26T03:08:34.679Z,37.17
2022-08-26T03:11:06.407Z,34.75
2022-08-26T03:13:41.087Z,34.70
2022-08-26T03:16:14.030Z,39.72
2022-08-26T03:18:52.314Z,36.25
2022-08-26T03:21:25.373Z,32.58
2022-08-26T03:23:58.797Z,32.47
2022-08-26T03:26:31.770Z,32.65
2022-08-26T03:29:18.880Z,30.33
2022-08-26T03:31:51.638Z,32.35
2022-08-26T03:34:24.643Z,31.85
2022-08-26T03:36:58.251Z,35.45
2022-08-26T03:39:31.582Z,29.35
2022-08-26T03:42:05.553Z,37.17
2022-08-26T03:44:42.129Z,38.17
2022-08-26T03:47:15.688Z,37.28
2022-08-26T03:49:47.766Z,38.25
2022-08-26T03:52:20.135Z,36.00
2022-08-26T03:54:52.267Z,34.78
2022-08-26T03:57:24.388Z,32.58
2022-08-26T03:59:59.305Z,30.92
2022-08-26T04:02:31.794Z,30.73
2022-08-26T04:05:03.731Z,34.63
2022-08-26T04:07:35.830Z,37.03
2022-08-26T04:10:08.106Z,37.63
2022-08-26T04:12:43.143Z,36.60
2022-08-26T04:15:20.525Z,40.28
2022-08-26T04:17:52.982Z,36.78
2022-08-26T04:20:25.267Z,40.00
2022-08-26T04:22:57.752Z,36.55
2022-08-26T04:25:32.062Z,39.97
2022-08-26T04:28:04.929Z,36.65
2022-08-26T04:30:40.602Z,39.55
2022-08-26T04:33:14.931Z,39.97
2022-08-26T04:35:46.965Z,43.38
2022-08-26T04:38:23.138Z,38.97
2022-08-26T04:40:55.057Z,34.38
2022-08-26T04:43:31.519Z,36.63
2022-08-26T04:46:09.798Z,33.67
2022-08-26T04:48:46.047Z,33.25
2022-08-26T04:51:17.928Z,32.40
2022-08-26T04:53:50.422Z,34.38
2022-08-26T04:56:22.299Z,40.20
2022-08-26T04:58:54.762Z,33.13
2022-08-26T05:01:32.762Z,33.70
2022-08-26T05:04:07.935Z,35.53
2022-08-26T05:06:39.983Z,33.10
2022-08-26T05:09:16.294Z,36.83
2022-08-26T05:11:55.364Z,34.85
2022-08-26T05:14:28.303Z,31.63
2022-08-26T05:17:03.127Z,33.10
2022-08-26T05:19:37.429Z,31.35
2022-08-26T05:22:15.095Z,28.13
2022-08-26T05:24:50.989Z,36.15
2022-08-26T05:27:23.669Z,32.70
2022-08-26T05:30:00.282Z,35.38
2022-08-26T05:32:36.368Z,36.00
2022-08-26T05:35:11.749Z,32.63
2022-08-26T05:37:44.298Z,29.77
2022-08-26T05:40:17.295Z,40.72
2022-08-26T05:42:51.727Z,26.25
2022-08-26T05:45:25.569Z,32.42
2022-08-26T05:48:02.200Z,39.72
2022-08-26T05:50:41.779Z,38.42
2022-08-26T05:53:18.740Z,28.13
2022-08-26T05:55:55.430Z,28.80
2022-08-26T05:58:29.049Z,29.55
2022-08-26T06:01:06.629Z,33.03
2022-08-26T06:03:42.768Z,31.98
2022-08-26T06:06:20.677Z,29.52
2022-08-26T06:09:00.530Z,34.30
2022-08-26T06:11:34.849Z,33.95
2022-08-26T06:14:09.269Z,30.50
2022-08-26T06:16:44.473Z,30.50
2022-08-26T06:19:19.548Z,33.55
2022-08-26T06:21:55.189Z,45.17
2022-08-26T06:24:39.168Z,35.72
2022-08-26T06:27:15.280Z,28.88
2022-08-26T06:29:47.428Z,27.55
2022-08-26T06:32:20.029Z,31.58
2022-08-26T06:34:54.889Z,33.50
2022-08-26T06:37:27.249Z,27.88
2022-08-26T06:39:59.294Z,29.05
2022-08-26T06:42:31.529Z,33.28
2022-08-26T06:45:03.258Z,31.83
2022-08-26T06:47:36.608Z,30.85
2022-08-26T06:50:11.988Z,27.27
2022-08-26T06:52:45.707Z,31.02
2022-08-26T06:55:17.688Z,30.05
2022-08-26T06:57:50.747Z,36.20
2022-08-26T07:00:28.399Z,30.73
2022-08-26T07:03:00.176Z,27.40
2022-08-26T07:05:35.953Z,27.05
2022-08-26T07:08:07.754Z,32.03
2022-08-26T07:10:41.421Z,27.15
2022-08-26T07:13:14.213Z,28.23
2022-08-26T07:15:45.671Z,29.73
2022-08-26T07:18:17.615Z,31.95
2022-08-26T07:20:56.044Z,30.08
2022-08-26T07:23:30.848Z,32.92
2022-08-26T07:26:07.229Z,27.02
2022-08-26T07:28:39.897Z,25.40
2022-08-26T07:31:13.477Z,28.58
2022-08-26T07:33:46.902Z,27.23
2022-08-26T07:36:24.532Z,26.70
2022-08-26T07:38:59.399Z,25.05
2022-08-26T07:41:33.992Z,31.88
2022-08-26T07:44:10.569Z,27.73
2022-08-26T07:46:44.664Z,32.28
2022-08-26T07:49:27.103Z,31.45
2022-08-26T07:52:03.906Z,26.67
2022-08-26T07:54:37.924Z,29.58
2022-08-26T07:57:10.443Z,31.17
2022-08-26T07:59:43.031Z,29.80
2022-08-26T08:02:15.511Z,32.03
2022-08-26T08:04:48.855Z,34.63
2022-08-26T08:07:25.757Z,31.88
2022-08-26T08:10:13.354Z,30.40
2022-08-26T08:12:45.862Z,30.85
2022-08-26T08:15:20.661Z,25.42
2022-08-26T08:17:54.054Z,33.05
2022-08-26T08:20:30.765Z,30.10
2022-08-26T08:23:07.383Z,33.30
2022-08-26T08:25:40.506Z,27.35
2022-08-26T08:28:13.023Z,28.85
2022-08-26T08:30:45.909Z,31.52
2022-08-26T08:33:18.122Z,28.75
2022-08-26T08:35:50.765Z,26.90
2022-08-26T08:38:25.384Z,33.30
2022-08-26T08:40:59.205Z,39.88
2022-08-26T08:43:41.829Z,31.27
2022-08-26T08:46:17.650Z,24.80
2022-08-26T08:48:57.230Z,24.73
2022-08-26T08:51:39.854Z,27.20
2022-08-26T08:54:14.910Z,32.83
2022-08-26T08:56:53.449Z,34.15
2022-08-26T08:59:27.831Z,30.02
2022-08-26T09:02:07.637Z,35.28
2022-08-26T09:05:06.172Z,38.10
2022-08-26T09:07:44.708Z,36.35
2022-08-26T09:10:35.536Z,30.40
2022-08-26T09:13:16.321Z,37.90
2022-08-26T09:15:56.792Z,31.02
2022-08-26T09:18:46.064Z,33.25
2022-08-26T09:21:20.450Z,34.38
2022-08-26T09:23:58.091Z,29.67
2022-08-26T09:26:45.450Z,32.45
2022-08-26T09:29:26.831Z,30.02
2022-08-26T09:32:21.413Z,36.95
2022-08-26T09:35:02.230Z,32.00
2022-08-26T09:40:38.689Z,30.55
2022-08-26T09:43:22.609Z,35.47
2022-08-26T09:45:59.689Z,26.67
2022-08-26T09:48:36.234Z,30.40
2022-08-26T09:51:27.574Z,29.33
2022-08-26T09:54:01.469Z,25.48
2022-08-26T09:56:37.379Z,35.88
2022-08-26T09:59:13.749Z,37.63
2022-08-26T10:01:47.538Z,34.97
2022-08-26T10:04:26.733Z,35.58
2022-08-26T10:07:02.108Z,26.45
2022-08-26T10:09:38.908Z,29.65
2022-08-26T10:12:16.149Z,25.58
2022-08-26T10:14:56.109Z,26.05
2022-08-26T10:17:33.498Z,28.77
2022-08-26T10:20:22.954Z,30.70
2022-08-26T10:23:02.835Z,28.15
2022-08-26T10:25:38.450Z,34.15
2022-08-26T10:28:18.991Z,25.58
2022-08-26T10:30:59.332Z,30.02
2022-08-26T10:33:31.610Z,29.60
2022-08-26T10:36:29.612Z,29.10
2022-08-26T10:39:03.852Z,38.40
2022-08-26T10:41:48.817Z,28.08
2022-08-26T10:44:23.083Z,32.35
2022-08-26T10:47:04.941Z,27.73
2022-08-26T10:49:37.088Z,31.80
2022-08-26T10:52:17.551Z,32.45
2022-08-26T10:54:56.488Z,33.03
2022-08-26T10:57:47.163Z,28.85
2022-08-26T11:00:35.187Z,31.20
2022-08-26T11:03:26.294Z,34.88
2022-08-26T11:06:33.742Z,33.40
2022-08-26T11:09:11.843Z,23.83
2022-08-26T11:11:53.891Z,30.73
2022-08-26T11:14:42.033Z,33.08
2022-08-26T11:18:04.893Z,25.67
2022-08-26T11:20:44.609Z,23.60
2022-08-26T11:23:52.856Z,26.00
2022-08-26T11:26:55.440Z,27.25
2022-08-26T11:30:01.429Z,31.42
2022-08-26T11:32:49.758Z,31.95
2022-08-26T11:35:53.814Z,27.30
2022-08-26T11:38:31.491Z,31.15
2022-08-26T11:41:13.410Z,27.77
2022-08-26T11:43:47.950Z,28.77
2022-08-26T11:46:29.029Z,32.70
2022-08-26T11:49:05.633Z,31.52
2022-08-26T11:51:41.937Z,24.90
2022-08-26T11:54:30.489Z,15.95
2022-08-26T11:57:12.090Z,16.90
2022-08-26T11:59:45.650Z,13.88
2022-08-26T12:02:20.910Z,13.50
2022-08-26T12:04:57.230Z,17.17
2022-08-26T12:07:33.578Z,12.55
2022-08-26T12:10:09.149Z,12.45
2022-08-26T12:12:42.979Z,13.77
2022-08-26T12:15:20.671Z,14.25
2022-08-26T12:17:55.232Z,13.85
2022-08-26T12:20:49.093Z,14.82
2022-08-26T12:23:30.431Z,12.05
2022-08-26T12:26:09.912Z,19.02
2022-08-26T12:28:47.890Z,17.50
2022-08-26T12:31:35.707Z,18.27
2022-08-26T12:34:12.759Z,15.90
2022-08-26T12:36:53.299Z,15.63
2022-08-26T12:39:35.729Z,14.75
2022-08-26T12:42:24.352Z,12.35
2022-08-26T12:45:04.190Z,13.95
2022-08-26T12:47:42.624Z,9.55
2022-08-26T12:50:23.198Z,13.63
2022-08-26T12:53:01.031Z,12.60
2022-08-26T12:55:47.596Z,9.30
2022-08-26T12:58:32.093Z,10.70
2022-08-26T13:01:23.998Z,16.55
2022-08-26T13:03:56.410Z,14.73
2022-08-26T13:06:32.150Z,13.45
2022-08-26T13:09:06.743Z,15.18
2022-08-26T13:12:03.169Z,17.08
2022-08-26T13:14:35.412Z,15.32
2022-08-26T13:17:07.858Z,21.77
2022-08-26T13:19:40.349Z,18.30
2022-08-26T13:22:17.910Z,19.85
2022-08-26T13:24:49.998Z,20.13
2022-08-26T13:27:27.550Z,20.65
2022-08-26T13:30:02.052Z,22.90
2022-08-26T13:32:34.632Z,18.85
2022-08-26T13:35:07.391Z,21.90
2022-08-26T13:37:39.991Z,27.55
2022-08-26T13:40:16.491Z,24.80
2022-08-26T13:42:51.790Z,25.17
2022-08-26T13:45:24.209Z,23.67
2022-08-26T13:47:56.813Z,21.20
2022-08-26T13:50:28.823Z,19.77
2022-08-26T13:53:01.110Z,22.63
2022-08-26T13:55:33.332Z,18.70
2022-08-26T13:58:08.779Z,22.58
2022-08-26T14:00:41.624Z,21.35
2022-08-26T14:03:14.558Z,17.90
2022-08-26T14:05:46.752Z,18.83
2022-08-26T14:08:19.653Z,19.15
2022-08-26T14:10:52.487Z,19.98
2022-08-26T14:13:28.031Z,22.63
2022-08-26T14:16:01.962Z,18.92
2022-08-26T14:18:41.646Z,22.83
2022-08-26T14:21:17.212Z,21.02
2022-08-26T14:23:49.791Z,23.02
2022-08-26T14:26:28.658Z,24.13
2022-08-26T14:29:06.313Z,22.52
2022-08-26T14:31:38.789Z,21.63
2022-08-26T14:34:11.570Z,20.42
2022-08-26T14:36:43.792Z,22.13
2022-08-26T14:39:18.027Z,17.77
2022-08-26T14:41:55.158Z,16.88
2022-08-26T14:44:34.733Z,17.80
2022-08-26T14:47:12.114Z,16.10
2022-08-26T14:49:45.019Z,18.50
2022-08-26T14:52:19.676Z,18.00
2022-08-26T14:54:48.592Z,21.55
2022-08-26T14:57:26.714Z,24.00
2022-08-26T15:00:03.018Z,27.17
2022-08-26T15:02:34.698Z,31.92
2022-08-26T15:05:14.395Z,34.90
2022-08-26T15:07:53.454Z,28.17
2022-08-26T15:10:28.389Z,27.65
2022-08-26T15:12:59.919Z,29.48
2022-08-26T15:15:34.853Z,26.45
2022-08-26T15:18:07.530Z,30.48
2022-08-26T15:20:39.311Z,32.92
2022-08-26T15:23:11.981Z,30.95
2022-08-26T15:25:48.622Z,31.92
2022-08-26T15:28:20.143Z,32.45
2022-08-26T15:30:58.527Z,28.05
2022-08-26T15:33:30.574Z,25.25
2022-08-26T15:36:03.714Z,26.33
2022-08-26T15:38:37.664Z,25.13
2022-08-26T15:41:11.056Z,26.02
2022-08-26T15:43:42.856Z,27.27
2022-08-26T15:46:17.903Z,22.88
2022-08-26T15:48:49.857Z,25.23
2022-08-26T15:51:27.117Z,29.30
2022-08-26T15:53:59.656Z,22.77
2022-08-26T15:56:33.407Z,24.95
2022-08-26T15:59:09.155Z,24.48
2022-08-26T16:01:44.494Z,23.40
2022-08-26T16:04:17.902Z,26.58
2022-08-26T16:06:53.375Z,23.30
2022-08-26T16:09:28.175Z,22.70
2022-08-26T16:12:03.282Z,24.75
2022-08-26T16:14:35.577Z,22.10
2022-08-26T16:17:10.418Z,25.65
2022-08-26T16:19:42.516Z,33.53
2022-08-26T16:22:14.615Z,25.33
2022-08-26T16:29:26.975Z,26.63
2022-08-26T16:31:59.397Z,25.02
2022-08-26T16:34:34.175Z,23.50
2022-08-26T16:37:06.995Z,23.80
2022-08-26T16:39:50.835Z,25.70
2022-08-26T16:42:35.576Z,24.15
2022-08-26T16:45:09.638Z,26.70
2022-08-26T16:47:42.175Z,30.92
2022-08-26T16:50:17.755Z,28.35
2022-08-26T16:52:55.610Z,24.92
2022-08-26T16:55:28.042Z,28.35
2022-08-26T16:58:00.815Z,31.92
2022-08-26T17:00:35.437Z,36.90
2022-08-26T17:03:07.842Z,39.50
2022-08-26T17:05:43.436Z,37.50
2022-08-26T17:08:27.375Z,37.92
2022-08-26T17:11:05.237Z,32.65
2022-08-26T17:13:39.514Z,33.38
2022-08-26T17:16:14.523Z,35.10
2022-08-26T17:18:47.578Z,31.65
2022-08-26T17:21:22.564Z,34.42
2022-08-26T17:23:55.018Z,34.30
2022-08-26T17:26:27.175Z,29.25
2022-08-26T17:29:00.356Z,32.28
2022-08-26T17:31:32.881Z,30.65
2022-08-26T17:34:05.795Z,31.67
2022-08-26T17:36:40.741Z,34.85
2022-08-26T17:39:13.735Z,33.42
2022-08-26T17:41:46.143Z,41.15
2022-08-26T17:44:18.534Z,34.85
2022-08-26T17:46:50.735Z,39.53
2022-08-26T17:49:23.255Z,35.08
2022-08-26T17:52:01.827Z,37.38
2022-08-26T17:54:34.676Z,56.25
2022-08-26T17:57:07.037Z,62.75
2022-08-26T17:59:43.294Z,40.60
2022-08-26T18:02:21.488Z,45.63
2022-08-26T18:04:58.615Z,43.75
2022-08-26T18:07:33.837Z,44.85
2022-08-26T18:10:18.856Z,49.65
2022-08-26T18:12:51.823Z,52.10
2022-08-26T18:15:24.704Z,55.05
2022-08-26T18:17:57.055Z,54.55
2022-08-26T18:20:29.936Z,55.65
2022-08-26T18:23:05.005Z,58.03
2022-08-26T18:25:37.837Z,53.63
2022-08-26T18:28:10.285Z,51.50
2022-08-26T18:30:45.735Z,56.13
2022-08-26T18:33:20.498Z,54.78
2022-08-26T18:35:57.776Z,48.90
2022-08-26T18:38:35.016Z,46.08
2022-08-26T18:41:08.276Z,52.85
2022-08-26T18:43:40.737Z,45.15
2022-08-26T18:46:14.389Z,45.92
2022-08-26T18:48:50.997Z,46.28
2022-08-26T18:51:26.279Z,44.53
2022-08-26T18:54:01.816Z,46.45
2022-08-26T18:56:34.895Z,47.88
2022-08-26T18:59:10.199Z,40.30
2022-08-26T19:01:46.897Z,44.55
2022-08-26T19:04:23.016Z,45.05
2022-08-26T19:06:56.676Z,47.95
2022-08-26T19:09:32.023Z,47.38
2022-08-26T19:12:05.300Z,43.55
2022-08-26T19:14:38.497Z,43.55
2022-08-26T19:17:10.911Z,44.05
2022-08-26T19:19:43.056Z,47.55
2022-08-26T19:22:17.877Z,47.17
2022-08-26T19:24:52.677Z,49.72
2022-08-26T19:27:24.956Z,52.05
2022-08-26T19:29:57.957Z,52.10
2022-08-26T19:32:30.475Z,49.65
2022-08-26T19:35:02.657Z,57.67
2022-08-26T19:37:35.296Z,58.42
2022-08-26T19:40:10.962Z,56.78
2022-08-26T19:42:43.185Z,50.70
2022-08-26T19:45:24.588Z,44.33
2022-08-26T19:47:59.661Z,51.40
2022-08-26T19:50:38.233Z,53.13
2022-08-26T19:53:13.682Z,59.10
2022-08-26T19:55:50.717Z,58.30
2022-08-26T19:58:22.836Z,59.65
2022-08-26T20:00:54.845Z,57.17
2022-08-26T20:03:27.612Z,53.70
2022-08-26T20:05:59.383Z,48.10
2022-08-26T20:08:34.339Z,47.60
2022-08-26T20:11:14.282Z,42.95
2022-08-26T20:13:50.885Z,41.38
2022-08-26T20:16:22.650Z,40.70
2022-08-26T20:19:06.636Z,38.35
2022-08-26T20:21:45.710Z,35.22
2022-08-26T20:24:26.737Z,36.65
2022-08-26T20:27:06.768Z,36.03
2022-08-26T20:29:41.505Z,35.40
2022-08-26T20:32:32.611Z,33.72
2022-08-26T20:35:09.016Z,32.92
2022-08-26T20:37:43.959Z,38.20
2022-08-26T20:40:22.545Z,33.60
2022-08-26T20:42:57.059Z,35.28
2022-08-26T20:45:29.168Z,35.35
2022-08-26T20:48:04.374Z,36.47
2022-08-26T20:50:37.851Z,33.03
2022-08-26T20:53:11.522Z,40.72
2022-08-26T20:55:51.786Z,35.25
2022-08-26T20:58:27.031Z,36.42
2022-08-26T21:01:08.072Z,37.08
2022-08-26T21:03:41.427Z,38.17
2022-08-26T21:06:22.574Z,39.63
2022-08-26T21:09:02.689Z,39.45
2022-08-26T21:11:38.542Z,39.20
2022-08-26T21:14:16.013Z,39.38
2022-08-26T21:16:50.354Z,38.20
2022-08-26T21:19:24.975Z,35.83
2022-08-26T21:21:57.194Z,34.78
2022-08-26T21:24:31.954Z,34.72
2022-08-26T21:27:06.332Z,27.45
2022-08-26T21:29:42.201Z,29.70
2022-08-26T21:32:17.365Z,27.67
2022-08-26T21:34:54.915Z,28.48
2022-08-26T21:37:27.552Z,29.80
2022-08-26T21:40:04.409Z,27.27
2022-08-26T21:42:43.267Z,23.35
2022-08-26T21:45:20.281Z,23.38
2022-08-26T21:47:53.845Z,22.60
2022-08-26T21:50:30.100Z,23.15
2022-08-26T21:53:04.220Z,26.05
2022-08-26T21:55:39.144Z,26.88
2022-08-26T21:58:11.881Z,27.75
2022-08-26T22:00:53.455Z,26.13
2022-08-26T22:03:28.648Z,27.38
2022-08-26T22:06:04.087Z,25.25
2022-08-26T22:08:38.625Z,28.50
2022-08-26T22:11:10.666Z,25.70
2022-08-26T22:13:44.615Z,30.63
2022-08-26T22:16:19.710Z,30.08
2022-08-26T22:18:53.875Z,28.67
2022-08-26T22:21:28.284Z,31.48
2022-08-26T22:24:01.034Z,29.27
2022-08-26T22:26:35.524Z,35.67
2022-08-26T22:29:08.558Z,35.83
2022-08-26T22:31:43.741Z,31.73
2022-08-26T22:34:20.734Z,35.72
2022-08-26T22:36:54.536Z,32.63
2022-08-26T22:39:29.634Z,31.63
2022-08-26T22:42:04.275Z,30.20
2022-08-26T22:44:37.286Z,36.45
2022-08-26T22:47:12.067Z,33.65
2022-08-26T22:49:44.634Z,36.13
2022-08-26T22:52:17.418Z,35.13
2022-08-26T22:54:50.085Z,34.92
2022-08-26T22:57:24.386Z,34.60
2022-08-26T22:59:57.104Z,35.17
2022-08-26T23:02:31.944Z,33.50
2022-08-26T23:05:04.415Z,33.45
2022-08-26T23:07:37.092Z,36.35
2022-08-26T23:10:12.174Z,34.25
2022-08-26T23:12:44.425Z,37.35
2022-08-26T23:15:16.775Z,42.42
2022-08-26T23:17:58.333Z,36.80
2022-08-26T23:20:32.575Z,40.13
2022-08-26T23:23:05.289Z,32.70
2022-08-26T23:25:38.125Z,35.10
2022-08-26T23:28:13.446Z,34.10
2022-08-26T23:30:45.825Z,34.83
2022-08-26T23:33:20.715Z,36.15
2022-08-26T23:35:51.236Z,39.47
2022-08-26T23:38:23.405Z,37.03
2022-08-26T23:40:56.075Z,35.47
2022-08-26T23:43:29.924Z,34.97
2022-08-26T23:46:02.244Z,34.08
2022-08-26T23:48:36.934Z,37.42
2022-08-26T23:51:22.006Z,32.90
2022-08-26T23:53:54.686Z,37.15
2022-08-26T23:56:27.626Z,33.78
2022-08-26T23:58:59.715Z,34.88
